Time;durP1;ratioP1;P1;durP2;ratioP2;P2;SDS_P1;SDS_P2;PMS_P1;PMS_P2;Temp;Humidity;BMP_temperature;BMP_pressure;BME280_temperature;BME280_humidity;BME280_pressure;Samples;Min_cycle;Max_cycle;Signal;HPM_P1;HPM_P2
2023/07/02 00:01:43;;;;;;;;;34.33;29.67;;;;;18.99;70.13;101123.13;5026454;28;45311;-79
2023/07/02 00:04:15;;;;;;;;;30.67;27.33;;;;;18.95;70.24;101128.81;5039683;28;45425;-79
2023/07/02 00:06:41;;;;;;;;;36.00;31.25;;;;;18.66;69.53;101094.38;5041083;28;48127;-79
2023/07/02 00:09:07;;;;;;;;;35.33;30.00;;;;;18.69;70.53;101106.69;5037149;28;45211;-79
2023/07/02 00:11:32;;;;;;;;;35.25;30.00;;;;;18.60;70.25;101099.34;5021640;28;45310;-79
2023/07/02 00:13:58;;;;;;;;;37.25;31.00;;;;;18.71;70.54;101126.19;5021371;28;45278;-79
2023/07/02 00:16:23;;;;;;;;;35.25;30.50;;;;;18.53;70.76;101098.97;5003613;28;51340;-79
2023/07/02 00:18:52;;;;;;;;;39.33;33.00;;;;;18.59;71.56;101109.22;5038199;28;45227;-79
2023/07/02 00:21:20;;;;;;;;;37.00;31.67;;;;;18.62;73.10;101121.50;5034601;28;45518;-78
2023/07/02 00:23:47;;;;;;;;;33.33;30.00;;;;;18.56;71.75;101120.16;5040350;28;45306;-78
2023/07/02 00:26:12;;;;;;;;;38.00;32.67;;;;;18.49;72.80;101124.25;5040824;28;46162;-78
2023/07/02 00:28:38;;;;;;;;;35.50;30.50;;;;;18.36;72.82;101099.34;5023165;28;45847;-80
2023/07/02 00:31:03;;;;;;;;;32.33;30.33;;;;;18.45;73.69;101117.44;5041094;28;45285;-79
2023/07/02 00:33:31;;;;;;;;;40.00;32.00;;;;;18.16;73.49;101087.44;5040818;28;45609;-80
2023/07/02 00:35:56;;;;;;;;;31.67;30.00;;;;;18.24;73.62;101105.63;5039248;28;45538;-78
2023/07/02 00:38:22;;;;;;;;;33.00;31.50;;;;;18.21;74.24;101109.38;5039703;28;45331;-79
2023/07/02 00:40:47;;;;;;;;;40.00;31.75;;;;;18.07;74.50;101090.81;5042743;28;45433;-79
2023/07/02 00:43:13;;;;;;;;;38.33;29.67;;;;;18.10;74.31;101098.59;5043166;28;45345;-79
2023/07/02 00:45:41;;;;;;;;;37.67;30.33;;;;;17.74;74.86;101038.88;5024876;28;45468;-79
2023/07/02 00:48:07;;;;;;;;;36.33;30.00;;;;;17.61;75.44;101026.41;5043138;28;45305;-80
2023/07/02 00:50:33;;;;;;;;;33.67;29.33;;;;;17.56;75.93;101033.06;5040261;28;45520;-80
2023/07/02 00:52:58;;;;;;;;;37.00;31.67;;;;;17.68;76.95;101061.59;5013235;28;45762;-79
2023/07/02 00:55:24;;;;;;;;;34.33;29.67;;;;;17.84;76.49;101090.75;5033467;28;46610;-79
2023/07/02 00:57:50;;;;;;;;;43.00;29.67;;;;;17.96;77.00;101122.88;5000520;28;45559;-79
2023/07/02 01:00:16;;;;;;;;;24.00;22.33;;;;;17.54;77.43;101073.25;5021289;28;45471;-79
2023/07/02 01:02:43;;;;;;;;;37.00;30.00;;;;;17.73;77.88;101098.72;5024857;28;45302;-79
2023/07/02 01:05:16;;;;;;;;;38.33;32.00;;;;;17.68;78.21;101096.38;5022157;28;48373;-79
2023/07/02 01:07:41;;;;;;;;;33.00;30.67;;;;;17.86;78.61;101127.19;5013413;28;45559;-79
2023/07/02 01:10:08;;;;;;;;;32.00;29.33;;;;;17.45;79.17;101065.91;5020159;28;45347;-78
2023/07/02 01:12:35;;;;;;;;;33.33;29.33;;;;;17.55;79.97;101103.53;5029048;28;46799;-79
2023/07/02 01:15:03;;;;;;;;;33.67;32.00;;;;;17.39;79.67;101071.69;5039516;28;45378;-79
2023/07/02 01:17:41;;;;;;;;;45.33;32.33;;;;;17.48;80.04;101107.59;5036327;28;45384;-79
2023/07/02 01:20:08;;;;;;;;;36.67;31.67;;;;;17.63;80.67;101131.50;5039065;28;45507;-79
2023/07/02 01:22:34;;;;;;;;;41.00;30.00;;;;;17.33;81.23;101085.50;5035052;28;45436;-79
2023/07/02 01:25:00;;;;;;;;;37.00;30.33;;;;;17.64;81.21;101146.56;5021771;28;45771;-79
2023/07/02 01:27:29;;;;;;;;;32.00;29.00;;;;;17.45;82.57;101114.03;5038116;28;45420;-79
2023/07/02 01:29:54;;;;;;;;;37.00;31.25;;;;;17.34;81.03;101099.72;5022064;28;45504;-79
2023/07/02 01:32:21;;;;;;;;;37.33;31.00;;;;;17.42;83.25;101127.63;5039552;28;45325;-79
2023/07/02 01:34:53;;;;;;;;;36.33;32.00;;;;;17.06;82.55;101074.91;5037980;28;45403;-78
2023/07/02 01:37:18;;;;;;;;;28.67;27.33;;;;;17.04;83.62;101090.22;5038407;28;45330;-79
2023/07/02 01:39:44;;;;;;;;;34.00;27.50;;;;;17.41;82.73;101144.63;5037072;28;45342;-79
2023/07/02 01:42:17;;;;;;;;;36.67;31.00;;;;;16.82;84.11;101046.38;5034079;28;45481;-79
2023/07/02 01:44:47;;;;;;;;;36.25;30.00;;;;;17.15;83.05;101106.34;5021641;28;47392;-79
2023/07/02 01:47:13;;;;;;;;;30.67;30.00;;;;;16.95;83.90;101071.28;5038846;28;45325;-79
2023/07/02 01:49:38;;;;;;;;;42.50;33.00;;;;;17.30;84.41;101143.66;5040184;28;45365;-79
2023/07/02 01:52:05;;;;;;;;;43.67;32.67;;;;;17.07;84.51;101116.72;5034318;28;45563;-78
2023/07/02 01:54:32;;;;;;;;;33.33;28.33;;;;;17.15;84.62;101132.22;5041554;28;46543;-79
2023/07/02 01:56:58;;;;;;;;;37.25;32.00;;;;;17.04;84.86;101116.06;5019495;28;45385;-79
2023/07/02 01:59:24;;;;;;;;;39.25;31.75;;;;;17.02;84.38;101110.81;5038449;28;45431;-79
2023/07/02 02:01:49;;;;;;;;;34.50;29.25;;;;;16.93;85.22;101107.94;5039743;28;45447;-79
2023/07/02 02:04:15;;;;;;;;;35.33;31.00;;;;;17.05;85.11;101136.47;5037311;28;45339;-79
2023/07/02 02:06:41;;;;;;;;;40.75;32.50;;;;;17.15;86.84;101157.13;5024759;28;44734;-79
2023/07/02 02:09:07;;;;;;;;;37.67;28.67;;;;;17.15;87.25;101159.81;5014004;28;45404;-80
2023/07/02 02:11:48;;;;;;;;;38.25;32.25;;;;;17.07;86.75;101148.78;5066131;28;45352;-79
2023/07/02 02:14:13;;;;;;;;;31.00;27.67;;;;;17.06;86.82;101144.41;5029592;28;47756;-79
2023/07/02 02:16:39;;;;;;;;;39.75;32.00;;;;;16.96;87.15;101139.78;5041393;28;45284;-79
2023/07/02 02:19:05;;;;;;;;;48.75;34.75;;;;;17.01;89.28;101151.91;5042808;28;45386;-79
2023/07/02 02:21:31;;;;;;;;;27.50;20.75;;;;;17.01;87.92;101157.25;5039389;28;45527;-79
2023/07/02 02:23:57;;;;;;;;;35.75;29.00;;;;;16.71;89.31;101107.69;5027114;28;46380;-79
2023/07/02 02:26:25;;;;;;;;;27.25;24.75;;;;;16.67;88.69;101126.59;5027205;28;46298;-79
2023/07/02 02:28:50;;;;;;;;;38.00;29.75;;;;;16.79;89.36;101135.59;5029809;28;45265;-79
2023/07/02 02:31:16;;;;;;;;;41.50;32.75;;;;;16.52;89.31;101092.84;5041600;28;44788;-78
2023/07/02 02:33:41;;;;;;;;;34.25;29.50;;;;;16.90;89.30;101167.78;5020178;28;47929;-79
2023/07/02 02:36:07;;;;;;;;;38.50;31.50;;;;;16.59;90.23;101110.22;5033532;28;45294;-78
2023/07/02 02:38:33;;;;;;;;;33.25;30.00;;;;;16.84;90.74;101159.31;5035840;28;45630;-78
2023/07/02 02:40:59;;;;;;;;;31.25;27.00;;;;;16.79;90.71;101153.41;5020431;28;45730;-78
2023/07/02 02:43:24;;;;;;;;;38.00;31.00;;;;;16.73;89.55;101137.81;5038082;28;45287;-79
2023/07/02 02:45:49;;;;;;;;;34.25;26.00;;;;;16.79;90.30;101153.41;5017340;28;50472;-78
2023/07/02 02:48:15;;;;;;;;;33.00;23.50;;;;;16.79;89.95;101161.44;5019747;28;45695;-78
2023/07/02 02:50:41;;;;;;;;;33.00;29.33;;;;;16.40;90.48;101104.38;5030904;28;45339;-79
2023/07/02 02:53:07;;;;;;;;;31.33;26.00;;;;;16.54;91.58;101135.50;5023116;28;45433;-78
2023/07/02 02:55:32;;;;;;;;;32.00;25.33;;;;;16.63;91.90;101146.44;5028003;28;45520;-78
2023/07/02 02:57:57;;;;;;;;;31.67;26.67;;;;;16.70;91.91;101160.25;5036685;28;49908;-78
2023/07/02 03:00:23;;;;;;;;;27.00;22.00;;;;;16.59;91.34;101154.75;5037376;28;45575;-78
2023/07/02 03:02:48;;;;;;;;;32.33;29.00;;;;;16.66;91.92;101166.75;5037929;28;45419;-78
2023/07/02 03:05:16;;;;;;;;;35.75;30.00;;;;;16.63;92.11;101162.47;5020532;28;45976;-78
2023/07/02 03:07:41;;;;;;;;;28.67;28.67;;;;;16.54;92.87;101167.53;5030856;28;45574;-79
2023/07/02 03:10:08;;;;;;;;;36.33;30.00;;;;;16.29;93.03;101138.06;5025040;28;45737;-79
2023/07/02 03:12:33;;;;;;;;;34.00;24.67;;;;;16.46;94.82;101157.34;5010387;28;47216;-79
2023/07/02 03:14:58;;;;;;;;;38.33;31.33;;;;;16.53;93.52;101158.66;5021210;28;45182;-78
2023/07/02 03:17:24;;;;;;;;;38.00;26.00;;;;;16.44;93.45;101151.28;5035150;28;45289;-79
2023/07/02 03:19:50;;;;;;;;;32.00;30.75;;;;;16.27;93.12;101130.16;5021038;28;45781;-81
2023/07/02 03:22:15;;;;;;;;;36.25;29.00;;;;;16.43;94.59;101154.88;5040222;28;45466;-80
2023/07/02 03:24:40;;;;;;;;;34.25;28.75;;;;;16.55;94.93;101177.31;5022459;28;45370;-80
2023/07/02 03:27:06;;;;;;;;;32.50;30.75;;;;;16.43;93.78;101159.38;5024071;28;45598;-80
2023/07/02 03:29:34;;;;;;;;;28.00;28.00;;;;;16.39;95.35;101149.88;5028637;28;45537;-80
2023/07/02 03:31:59;;;;;;;;;34.67;27.33;;;;;16.50;94.63;101179.38;5034785;28;45463;-80
2023/07/02 03:34:25;;;;;;;;;23.50;21.75;;;;;16.34;94.31;101162.63;5021734;28;45446;-81
2023/07/02 03:36:50;;;;;;;;;29.00;25.33;;;;;16.34;95.21;101176.00;5023061;28;45392;-80
2023/07/02 03:39:19;;;;;;;;;32.67;26.67;;;;;16.37;95.09;101186.47;5018354;28;45610;-81
2023/07/02 03:41:44;;;;;;;;;33.50;29.50;;;;;16.42;95.59;101195.91;5026350;28;47365;-78
2023/07/02 03:44:10;;;;;;;;;32.50;28.50;;;;;16.42;95.83;101197.72;5050605;28;45446;-80
2023/07/02 03:46:35;;;;;;;;;33.00;27.00;;;;;16.29;96.01;101181.66;5033299;28;45310;-80
2023/07/02 03:49:02;;;;;;;;;28.33;25.67;;;;;16.38;95.13;101199.72;5023095;28;45487;-80
2023/07/02 03:51:28;;;;;;;;;28.00;25.33;;;;;16.03;95.92;101143.28;5039705;28;45769;-80
2023/07/02 03:53:53;;;;;;;;;30.67;26.00;;;;;16.37;96.16;101207.81;5041459;28;45439;-80
2023/07/02 03:56:21;;;;;;;;;34.67;27.00;;;;;16.33;95.96;101214.34;5028176;28;45400;-80
2023/07/02 03:58:47;;;;;;;;;35.00;28.00;;;;;16.31;96.19;101213.56;5036411;28;45301;-80
2023/07/02 04:01:13;;;;;;;;;34.33;27.33;;;;;16.27;96.91;101204.88;5037068;28;46793;-79
2023/07/02 04:03:38;;;;;;;;;34.00;27.00;;;;;16.11;97.33;101189.00;5025918;28;45455;-79
2023/07/02 04:06:06;;;;;;;;;32.67;28.00;;;;;16.20;97.32;101197.41;5049262;28;45262;-79
2023/07/02 04:08:32;;;;;;;;;34.33;27.00;;;;;16.20;98.25;101194.72;5045059;28;45341;-80
2023/07/02 04:10:57;;;;;;;;;38.67;31.67;;;;;16.18;97.60;101200.16;5037218;28;45943;-80
2023/07/02 04:13:23;;;;;;;;;25.00;23.00;;;;;16.30;99.40;101211.84;5045794;28;45324;-79
2023/07/02 04:15:48;;;;;;;;;26.33;25.00;;;;;16.20;97.99;101186.72;5039555;28;45389;-80
2023/07/02 04:18:13;;;;;;;;;29.33;28.33;;;;;16.23;98.02;101194.53;5038668;28;45564;-79
2023/07/02 04:20:39;;;;;;;;;33.67;29.00;;;;;16.20;97.68;101190.22;5034328;28;45433;-79
2023/07/02 04:23:06;;;;;;;;;33.00;23.33;;;;;16.30;97.83;101209.16;5009759;28;45479;-79
2023/07/02 04:25:31;;;;;;;;;25.33;22.00;;;;;16.19;98.77;101193.88;5041973;28;45218;-79
2023/07/02 04:27:58;;;;;;;;;34.33;26.67;;;;;16.06;98.08;101166.25;5035484;28;45441;-80
2023/07/02 04:30:24;;;;;;;;;31.00;26.33;;;;;16.31;97.90;101217.09;5031635;28;46315;-80
2023/07/02 04:32:50;;;;;;;;;38.00;25.33;;;;;16.25;97.21;101197.94;5040402;28;45595;-79
2023/07/02 04:35:15;;;;;;;;;34.00;25.00;;;;;16.03;97.79;101174.47;5038283;28;45666;-78
2023/07/02 04:37:40;;;;;;;;;28.67;27.00;;;;;16.38;97.80;101225.56;5027861;28;45441;-79
2023/07/02 04:40:09;;;;;;;;;31.33;24.00;;;;;16.18;98.71;101192.16;5035995;28;45445;-79
2023/07/02 04:42:37;;;;;;;;;30.00;23.00;;;;;16.36;97.81;101222.97;5036838;28;45382;-78
2023/07/02 04:45:06;;;;;;;;;30.33;29.00;;;;;16.40;98.54;101232.50;5029868;28;45359;-79
2023/07/02 04:47:32;;;;;;;;;36.33;30.00;;;;;16.38;97.96;101237.09;5017980;28;45500;-79
2023/07/02 04:49:57;;;;;;;;;25.00;21.00;;;;;16.13;98.11;101192.44;5020246;28;45588;-79
2023/07/02 04:52:23;;;;;;;;;41.33;22.00;;;;;16.33;99.31;101231.19;5031226;28;45444;-79
2023/07/02 04:54:49;;;;;;;;;23.00;17.67;;;;;16.35;97.76;101221.28;5030996;28;45342;-79
2023/07/02 04:57:14;;;;;;;;;29.67;26.00;;;;;16.17;99.22;101204.63;5039732;28;45345;-79
2023/07/02 04:59:42;;;;;;;;;24.67;24.00;;;;;16.38;98.03;101215.75;5019934;28;46129;-79
2023/07/02 05:02:08;;;;;;;;;30.00;27.00;;;;;16.60;98.19;101233.91;5035941;28;45309;-79
2023/07/02 05:04:33;;;;;;;;;27.00;24.33;;;;;16.17;97.38;101164.59;5016361;28;45472;-79
2023/07/02 05:07:02;;;;;;;;;25.33;21.67;;;;;16.70;95.97;101229.69;5033657;28;46390;-79
2023/07/02 05:09:27;;;;;;;;;24.33;22.67;;;;;16.56;97.35;101171.84;5021536;28;46273;-78
2023/07/02 05:11:53;;;;;;;;;26.00;21.33;;;;;16.73;95.62;101197.44;5019673;28;45456;-78
2023/07/02 05:14:18;;;;;;;;;28.33;23.00;;;;;17.06;95.05;101235.28;5017587;28;45446;-78
2023/07/02 05:16:43;;;;;;;;;28.33;22.67;;;;;16.96;94.63;101210.13;5014210;28;45686;-79
2023/07/02 05:19:09;;;;;;;;;22.33;22.33;;;;;17.06;93.38;101216.56;5029004;28;46148;-79
2023/07/02 05:21:35;;;;;;;;;27.00;20.33;;;;;17.13;92.85;101225.03;5034201;28;45497;-78
2023/07/02 05:24:01;;;;;;;;;17.33;14.67;;;;;16.84;93.18;101192.25;5020222;28;45501;-78
2023/07/02 05:26:27;;;;;;;;;14.00;14.00;;;;;16.91;93.02;101198.03;5038830;28;45445;-78
2023/07/02 05:28:52;;;;;;;;;27.00;23.00;;;;;17.08;92.94;101232.50;5040178;28;46805;-78
2023/07/02 05:31:17;;;;;;;;;25.00;21.67;;;;;17.21;93.47;101238.75;5044529;28;45297;-79
2023/07/02 05:33:43;;;;;;;;;36.00;27.67;;;;;17.28;92.85;101248.03;5037305;28;45283;-78
2023/07/02 05:36:08;;;;;;;;;27.33;19.33;;;;;17.30;94.45;101238.09;5023537;28;45574;-78
2023/07/02 05:38:33;;;;;;;;;27.00;21.33;;;;;17.03;91.84;101192.72;5012330;28;46956;-78
2023/07/02 05:40:59;;;;;;;;;33.33;27.33;;;;;17.08;91.70;101211.97;5037197;28;45353;-79
2023/07/02 05:43:24;;;;;;;;;32.33;25.00;;;;;17.43;92.59;101257.69;5032603;28;45326;-79
2023/07/02 05:45:52;;;;;;;;;25.67;21.67;;;;;17.42;91.77;101249.78;5019767;28;45454;-78
2023/07/02 05:48:17;;;;;;;;;23.00;22.00;;;;;17.29;91.72;101232.84;5019338;28;45474;-78
2023/07/02 05:50:43;;;;;;;;;31.67;24.33;;;;;17.44;92.54;101247.88;5020180;28;45374;-79
2023/07/02 05:53:09;;;;;;;;;33.67;23.67;;;;;17.50;91.96;101248.31;5032302;28;45363;-78
2023/07/02 05:55:35;;;;;;;;;34.00;26.00;;;;;17.32;91.40;101224.63;5039666;28;45387;-79
2023/07/02 05:58:02;;;;;;;;;25.33;24.00;;;;;17.64;90.96;101258.91;5021517;28;47807;-78
2023/07/02 06:00:28;;;;;;;;;27.67;22.33;;;;;17.68;89.80;101256.88;5021680;28;45305;-78
2023/07/02 06:02:53;;;;;;;;;30.67;26.33;;;;;17.64;92.22;101250.88;5038774;28;45373;-78
2023/07/02 06:05:19;;;;;;;;;27.00;22.33;;;;;17.80;89.59;101276.59;5017481;28;45766;-78
2023/07/02 06:07:44;;;;;;;;;20.00;18.00;;;;;17.62;89.28;101233.25;5035820;28;46101;-79
2023/07/02 06:10:10;;;;;;;;;22.00;20.00;;;;;17.83;89.44;101258.50;5039939;28;45404;-79
2023/07/02 06:12:35;;;;;;;;;22.33;21.67;;;;;17.96;90.23;101271.88;5034633;28;45530;-78
2023/07/02 06:15:00;;;;;;;;;23.33;20.00;;;;;17.80;88.88;101253.34;5019012;28;45543;-78
2023/07/02 06:17:26;;;;;;;;;25.33;21.00;;;;;17.92;90.22;101252.50;5034234;28;45479;-79
2023/07/02 06:19:52;;;;;;;;;28.33;23.00;;;;;17.95;88.10;101268.34;5022944;28;45369;-78
2023/07/02 06:22:18;;;;;;;;;27.00;19.67;;;;;17.64;88.51;101233.97;5015366;28;45707;-78
2023/07/02 06:24:46;;;;;;;;;34.33;28.00;;;;;17.69;87.65;101221.16;5020330;28;45449;-78
2023/07/02 06:27:11;;;;;;;;;30.00;23.67;;;;;18.02;89.42;101268.78;5019876;28;47115;-78
2023/07/02 06:29:37;;;;;;;;;24.67;21.33;;;;;17.96;88.07;101254.00;5015026;28;45633;-77
2023/07/02 06:32:02;;;;;;;;;30.00;23.33;;;;;18.13;87.33;101288.44;5019068;28;45695;-78
2023/07/02 06:34:28;;;;;;;;;19.33;17.67;;;;;18.10;88.18;101275.28;5022684;28;45456;-79
2023/07/02 06:36:56;;;;;;;;;24.67;19.67;;;;;18.28;88.16;101291.00;5035695;28;45573;-78
2023/07/02 06:39:22;;;;;;;;;25.67;23.67;;;;;18.28;87.01;101289.19;5034215;28;45286;-78
2023/07/02 06:41:47;;;;;;;;;23.33;20.67;;;;;18.26;86.44;101291.09;5036570;28;45513;-78
2023/07/02 06:44:12;;;;;;;;;28.67;21.00;;;;;18.38;87.61;101306.31;5036660;28;45289;-78
2023/07/02 06:46:38;;;;;;;;;24.33;19.33;;;;;18.56;87.82;101312.19;5035749;28;45536;-78
2023/07/02 06:49:03;;;;;;;;;30.33;22.33;;;;;18.67;85.81;101267.59;5036352;28;45547;-78
2023/07/02 06:51:29;;;;;;;;;8.67;7.33;;;;;18.98;83.23;101295.66;5036215;28;45500;-77
2023/07/02 06:53:54;;;;;;;;;28.67;22.00;;;;;19.06;82.42;101309.34;5037064;28;45673;-77
2023/07/02 06:56:20;;;;;;;;;23.00;22.67;;;;;18.99;82.58;101299.19;5039868;28;47694;-77
2023/07/02 06:58:45;;;;;;;;;36.33;21.00;;;;;19.03;83.00;101309.59;5043055;28;45428;-78
2023/07/02 07:01:11;;;;;;;;;20.33;20.00;;;;;18.95;82.36;101287.84;5050313;28;45885;-78
2023/07/02 07:03:42;;;;;;;;;21.33;20.00;;;;;18.94;83.31;101267.38;5027275;28;45487;-77
2023/07/02 07:06:07;;;;;;;;;26.00;25.00;;;;;19.14;82.60;101300.75;5040085;28;45449;-77
2023/07/02 07:08:33;;;;;;;;;24.33;23.00;;;;;18.94;83.01;101259.34;5036298;28;45463;-78
2023/07/02 07:10:58;;;;;;;;;32.00;25.67;;;;;19.34;84.35;101289.34;5062486;28;45351;-80
2023/07/02 07:13:24;;;;;;;;;31.33;27.00;;;;;19.15;81.32;101241.63;5029426;28;45585;-79
2023/07/02 07:15:49;;;;;;;;;26.00;20.00;;;;;19.52;80.10;101262.97;5064926;28;45435;-79
2023/07/02 07:18:15;;;;;;;;;31.67;24.00;;;;;19.71;78.60;101261.44;5042572;28;45359;-82
2023/07/02 07:20:41;;;;;;;;;25.33;20.00;;;;;19.97;77.79;101283.56;5041778;28;45427;-82
2023/07/02 07:23:07;;;;;;;;;22.33;20.00;;;;;19.99;77.46;101243.19;5040020;28;45598;-82
2023/07/02 07:25:32;;;;;;;;;22.33;20.33;;;;;20.58;76.07;101317.16;5022708;28;47003;-82
2023/07/02 07:27:59;;;;;;;;;30.00;22.00;;;;;20.16;74.65;101231.91;5020199;28;45300;-82
2023/07/02 07:30:25;;;;;;;;;20.67;20.67;;;;;20.11;74.09;101220.69;5036187;28;45266;-82
2023/07/02 07:32:52;;;;;;;;;24.67;20.33;;;;;20.35;74.10;101261.75;5021662;28;45477;-82
2023/07/02 07:35:18;;;;;;;;;20.67;19.67;;;;;20.40;74.45;101275.66;5040842;28;45460;-82
2023/07/02 07:37:44;;;;;;;;;22.33;18.67;;;;;20.64;76.80;101300.56;5017773;28;45495;-82
2023/07/02 07:40:10;;;;;;;;;25.00;21.00;;;;;20.35;73.90;101248.31;5046446;28;45448;-82
2023/07/02 07:42:36;;;;;;;;;24.33;18.67;;;;;20.32;74.08;101239.66;5022639;28;45705;-82
2023/07/02 07:45:03;;;;;;;;;22.67;19.33;;;;;20.85;76.04;101327.50;5025342;28;45819;-82
2023/07/02 07:47:29;;;;;;;;;26.67;22.33;;;;;20.83;71.85;101278.38;5041099;28;45296;-82
2023/07/02 07:49:54;;;;;;;;;30.67;24.67;;;;;20.84;75.38;101265.81;5037443;28;45259;-81
2023/07/02 07:52:21;;;;;;;;;7.00;0.00;;;;;20.71;71.32;101239.91;5022178;28;45976;-82
2023/07/02 07:54:46;;;;;;;;;23.33;22.67;;;;;20.63;70.96;101242.41;5025196;28;47220;-83
2023/07/02 07:57:12;;;;;;;;;25.67;21.67;;;;;20.95;69.78;101276.50;5022561;28;45542;-83
2023/07/02 07:59:37;;;;;;;;;23.33;21.67;;;;;20.95;69.72;101265.75;5031426;28;45442;-82
2023/07/02 08:02:03;;;;;;;;;23.67;21.67;;;;;21.28;68.30;101308.72;5018580;28;45755;-83
2023/07/02 08:04:29;;;;;;;;;25.67;22.67;;;;;20.95;70.59;101246.94;5037667;28;46665;-82
2023/07/02 08:07:04;;;;;;;;;25.67;23.33;;;;;21.52;70.63;101344.34;5018142;28;45506;-82
2023/07/02 08:09:39;;;;;;;;;24.67;22.33;;;;;21.16;68.38;101237.97;5021859;28;45459;-82
2023/07/02 08:12:14;;;;;;;;;21.67;18.67;;;;;21.11;67.48;101221.34;5040379;28;45471;-82
2023/07/02 08:14:50;;;;;;;;;23.67;22.33;;;;;21.64;67.04;101302.03;5038388;28;46935;-82
2023/07/02 08:17:18;;;;;;;;;29.33;24.67;;;;;21.91;66.73;101323.09;5040369;28;45451;-82
2023/07/02 08:19:44;;;;;;;;;19.67;18.33;;;;;21.72;67.98;101273.50;5022828;28;45275;-81
2023/07/02 08:22:15;;;;;;;;;23.67;22.67;;;;;21.79;65.06;101293.50;5022190;28;45577;-82
2023/07/02 08:24:41;;;;;;;;;24.67;19.00;;;;;21.62;66.09;101282.50;5021598;28;47965;-82
2023/07/02 08:27:06;;;;;;;;;28.33;24.33;;;;;21.82;66.94;101311.25;5044476;28;45559;-82
2023/07/02 08:29:41;;;;;;;;;22.33;19.67;;;;;21.70;66.00;101261.97;5036946;28;45385;-82
2023/07/02 08:32:07;;;;;;;;;21.33;20.33;;;;;22.00;65.50;101301.59;5039897;28;45432;-82
2023/07/02 08:34:42;;;;;;;;;23.00;21.67;;;;;21.98;65.82;101300.91;5036001;28;45456;-82
2023/07/02 08:37:08;;;;;;;;;16.00;13.33;;;;;21.66;64.64;101232.78;5037361;28;45511;-83
2023/07/02 08:39:33;;;;;;;;;27.00;24.33;;;;;22.21;64.06;101297.03;5022176;28;45392;-83
2023/07/02 08:41:58;;;;;;;;;22.67;22.00;;;;;21.98;63.38;101254.25;5041026;28;45511;-82
2023/07/02 08:44:25;;;;;;;;;18.00;15.00;;;;;21.95;64.97;101233.81;5025142;28;46103;-82
2023/07/02 08:46:53;;;;;;;;;25.33;21.00;;;;;22.27;62.29;101283.03;5015746;28;45480;-79
2023/07/02 08:49:21;;;;;;;;;21.33;19.00;;;;;22.33;61.60;101298.66;5043403;28;45459;-79
2023/07/02 08:52:01;;;;;;;;;;;;;;;;;;;;;
2023/07/02 08:54:26;;;;;;;;;26.00;17.67;;;;;22.26;61.62;101328.97;5041519;28;74425;-80
2023/07/02 08:57:12;;;;;;;;;27.33;24.00;;;;;21.88;61.98;101286.47;5011672;28;45431;-79
2023/07/02 08:59:57;;;;;;;;;25.67;24.67;;;;;22.32;61.35;101348.13;5020724;28;45330;-79
2023/07/02 09:02:33;;;;;;;;;22.33;17.00;;;;;22.38;62.80;101256.97;5039439;28;45396;-82
2023/07/02 09:05:14;;;;;;;;;19.67;16.33;;;;;22.41;58.88;101245.91;5021413;28;46705;-78
2023/07/02 09:07:48;;;;;;;;;25.67;23.67;;;;;22.69;60.05;101324.19;5030054;28;45456;-80
2023/07/02 09:10:45;;;;;;;;;22.67;21.67;;;;;22.56;61.14;101323.56;5028562;28;45297;-79
2023/07/02 09:13:25;;;;;;;;;25.33;21.33;;;;;21.88;61.40;101232.63;5019597;28;45545;-78
2023/07/02 09:15:51;;;;;;;;;25.67;21.00;;;;;21.81;58.63;101266.44;5015582;28;46215;-79
2023/07/02 09:18:25;;;;;;;;;17.00;16.00;;;;;22.08;58.67;101326.06;5027483;28;45327;-80
2023/07/02 09:21:28;;;;;;;;;21.00;17.00;;;;;21.56;60.26;101269.56;5047578;28;45321;-79
2023/07/02 09:23:55;;;;;;;;;21.33;19.33;;;;;21.36;61.31;101246.19;5035353;28;45498;-79
2023/07/02 09:26:30;;;;;;;;;16.67;16.33;;;;;21.09;59.22;101211.66;5021047;28;47282;-78
2023/07/02 09:29:05;;;;;;;;;22.67;22.67;;;;;21.02;60.04;101214.03;5039205;28;45310;-79
2023/07/02 09:31:46;;;;;;;;;21.33;19.00;;;;;21.07;60.63;101216.34;5017427;28;45456;-80
2023/07/02 09:35:00;;;;;;;;;25.67;19.33;;;;;21.44;60.17;101279.50;5011558;28;45582;-78
2023/07/02 09:37:36;;;;;;;;;27.67;23.00;;;;;21.08;60.66;101210.81;5016967;28;46653;-79
2023/07/02 09:40:17;;;;;;;;;20.00;17.00;;;;;21.27;61.08;101237.03;5016690;28;45533;-80
2023/07/02 09:42:52;;;;;;;;;17.33;14.00;;;;;21.46;60.25;101242.56;5018521;28;45342;-80
2023/07/02 09:45:23;;;;;;;;;21.67;20.67;;;;;21.70;60.86;101236.91;5022722;28;45606;-78
2023/07/02 09:47:55;;;;;;;;;19.67;19.67;;;;;21.65;57.92;101239.16;5019855;28;45472;-79
2023/07/02 09:50:22;;;;;;;;;20.67;15.67;;;;;21.98;57.82;101282.03;5019136;28;45491;-79
2023/07/02 09:53:00;;;;;;;;;15.33;13.67;;;;;22.84;55.34;101338.13;5014715;28;45417;-79
2023/07/02 09:55:32;;;;;;;;;14.67;14.67;;;;;22.71;54.70;101253.94;5016332;28;45410;-80
2023/07/02 09:58:11;;;;;;;;;15.33;12.33;;;;;23.06;54.63;101331.69;5027659;28;45576;-81
2023/07/02 10:00:48;;;;;;;;;22.33;17.00;;;;;22.78;53.32;101301.78;5020750;28;45263;-80
2023/07/02 10:03:13;;;;;;;;;17.33;15.67;;;;;22.32;55.34;101259.19;5021116;28;45330;-80
2023/07/02 10:05:40;;;;;;;;;18.33;13.33;;;;;22.09;55.85;101246.06;5026901;28;45492;-81
2023/07/02 10:08:26;;;;;;;;;19.33;17.00;;;;;22.44;55.71;101323.81;5020996;28;45560;-80
2023/07/02 10:11:36;;;;;;;;;14.67;14.00;;;;;22.45;55.10;101325.50;5038912;28;45460;-80
2023/07/02 10:14:04;;;;;;;;;18.33;15.67;;;;;22.32;56.48;101323.03;5046508;28;45413;-81
2023/07/02 10:16:31;;;;;;;;;23.67;16.33;;;;;21.85;55.00;101246.34;5049893;28;45956;-81
2023/07/02 10:19:24;;;;;;;;;17.33;14.00;;;;;21.73;55.83;101223.16;5019058;28;47228;-79
2023/07/02 10:22:03;;;;;;;;;4.00;0.00;;;;;21.95;54.15;101265.28;5029161;28;45311;-81
2023/07/02 10:24:33;;;;;;;;;15.00;15.00;;;;;21.89;56.98;101260.41;5017651;28;45502;-81
2023/07/02 10:27:05;;;;;;;;;21.00;15.67;;;;;21.86;54.44;101239.97;5023688;28;45632;-81
2023/07/02 10:29:34;;;;;;;;;17.00;13.33;;;;;22.66;54.39;101308.31;5023299;28;46298;-81
2023/07/02 10:32:04;;;;;;;;;18.00;16.00;;;;;22.89;53.87;101262.22;5023357;28;45259;-82
2023/07/02 10:38:06;;;;;;;;;17.67;15.33;;;;;23.09;53.75;101263.94;5034584;28;45541;-82
2023/07/02 10:41:26;;;;;;;;;26.33;21.33;;;;;22.80;51.06;101226.16;5008201;28;47325;-82
2023/07/02 10:44:32;;;;;;;;;15.00;14.67;;;;;23.21;52.12;101306.81;5043478;28;45606;-82
2023/07/02 10:47:46;;;;;;;;;14.67;14.67;;;;;22.66;50.01;101200.44;5027772;28;45681;-82
2023/07/02 10:50:23;;;;;;;;;13.33;11.33;;;;;23.42;51.84;101292.38;5024625;28;45663;-81
2023/07/02 10:52:52;;;;;;;;;21.33;16.33;;;;;23.38;50.46;101236.91;5031034;28;45849;-82
2023/07/02 10:55:31;;;;;;;;;15.67;15.00;;;;;23.96;50.11;101286.31;5038296;28;45284;-82
2023/07/02 10:58:34;;;;;;;;;20.67;18.67;;;;;23.87;49.02;101239.41;5019730;28;45397;-82
2023/07/02 11:01:23;;;;;;;;;18.33;17.33;;;;;23.72;50.34;101187.69;5012262;28;45293;-82
2023/07/02 11:04:17;;;;;;;;;18.00;16.00;;;;;24.14;49.35;101217.00;5018395;28;45441;-82
2023/07/02 11:06:43;;;;;;;;;13.00;13.00;;;;;24.70;48.22;101285.31;5015913;28;45783;-82
2023/07/02 11:09:20;;;;;;;;;14.33;13.33;;;;;24.20;47.79;101229.91;5020253;28;45532;-82
2023/07/02 11:12:21;;;;;;;;;15.33;15.33;;;;;24.31;48.16;101265.72;5018771;28;45528;-82
2023/07/02 11:14:47;;;;;;;;;18.00;18.00;;;;;24.30;47.44;101246.94;5038699;28;47889;-82
2023/07/02 11:17:28;;;;;;;;;25.00;25.00;;;;;23.82;45.72;101193.09;5020423;28;45501;-82
2023/07/02 11:20:48;;;;;;;;;;;;;;;;;;;;;
2023/07/02 11:23:24;;;;;;;;;22.25;22.25;;;;;23.93;46.26;101240.66;5030594;28;72866;-81
2023/07/02 11:30:03;;;;;;;;;20.33;20.33;;;;;23.84;46.27;101188.38;5027498;28;45548;-82